Time;durP1;ratioP1;P1;durP2;ratioP2;P2;SDS_P1;SDS_P2;PMS_P1;PMS_P2;Temp;Humidity;BMP_temperature;BMP_pressure;BME280_temperature;BME280_humidity;BME280_pressure;Samples;Min_cycle;Max_cycle;Signal;HPM_P1;HPM_P2
2023/08/13 00:02:03;;;;;;;10.47;3.10;;;;;;;;;;5013059;28;20252;-86
2023/08/13 00:04:32;;;;;;;11.47;3.10;;;;;;;;;;5012864;28;20243;-86
2023/08/13 00:07:01;;;;;;;9.37;2.47;;;;;;;;;;5012540;28;20328;-86
2023/08/13 00:09:31;;;;;;;6.43;2.30;;;;;;;;;;5012787;28;20198;-86
2023/08/13 00:11:59;;;;;;;5.43;2.30;;;;;;;;;;5013382;28;20211;-86
2023/08/13 00:14:28;;;;;;;3.50;2.10;;;;;;;;;;5012735;28;20222;-86
2023/08/13 00:16:57;;;;;;;7.37;6.40;;;;;;;;;;5012359;28;20199;-86
2023/08/13 00:19:26;;;;;;;6.23;2.30;;;;;;;;;;5012950;28;20192;-86
2023/08/13 00:21:55;;;;;;;2.90;1.50;;;;;;;;;;5012973;28;20234;-86
2023/08/13 00:24:36;;;;;;;15.67;3.27;;;;;;;;;;5012289;28;20229;-86
2023/08/13 00:27:05;;;;;;;3.20;2.20;;;;;;;;;;5012888;28;20197;-86
2023/08/13 00:29:33;;;;;;;12.57;3.37;;;;;;;;;;5012776;28;20267;-87
2023/08/13 00:32:02;;;;;;;1.13;0.97;;;;;;;;;;5012367;28;20201;-87
2023/08/13 00:34:31;;;;;;;7.70;2.47;;;;;;;;;;5012311;28;20215;-86
2023/08/13 00:36:59;;;;;;;5.63;1.93;;;;;;;;;;5012776;28;20206;-87
2023/08/13 00:39:28;;;;;;;2.33;1.10;;;;;;;;;;5012690;28;20217;-86
2023/08/13 00:41:57;;;;;;;2.20;1.57;;;;;;;;;;5012063;28;20233;-86
2023/08/13 00:44:26;;;;;;;9.30;2.90;;;;;;;;;;5012358;28;20213;-86
2023/08/13 00:46:55;;;;;;;10.07;4.37;;;;;;;;;;5012736;28;20214;-86
2023/08/13 00:49:24;;;;;;;4.60;2.13;;;;;;;;;;5012136;28;20210;-86
2023/08/13 00:51:52;;;;;;;7.30;2.40;;;;;;;;;;5012543;28;20314;-86
2023/08/13 00:54:21;;;;;;;3.30;1.60;;;;;;;;;;5012452;28;20302;-86
2023/08/13 00:56:52;;;;;;;2.80;1.80;;;;;;;;;;5012283;28;20252;-86
2023/08/13 00:59:22;;;;;;;8.47;2.03;;;;;;;;;;5011744;28;20192;-86
2023/08/13 01:01:51;;;;;;;8.53;2.60;;;;;;;;;;5012320;28;20217;-86
2023/08/13 01:04:19;;;;;;;4.40;1.63;;;;;;;;;;5012243;28;20258;-86
2023/08/13 01:06:56;;;;;;;3.23;1.53;;;;;;;;;;5012023;28;20242;-86
2023/08/13 01:09:30;;;;;;;5.00;1.07;;;;;;;;;;5011615;28;20214;-86
2023/08/13 01:12:00;;;;;;;4.90;1.63;;;;;;;;;;5012325;28;20230;-86
2023/08/13 01:14:34;;;;;;;5.23;2.57;;;;;;;;;;5012141;28;20203;-86
2023/08/13 01:17:04;;;;;;;9.07;2.97;;;;;;;;;;5011739;28;20343;-86
2023/08/13 01:19:33;;;;;;;8.57;2.00;;;;;;;;;;5011885;28;20199;-86
2023/08/13 01:22:01;;;;;;;8.17;3.00;;;;;;;;;;5012172;28;20204;-85
2023/08/13 01:24:31;;;;;;;7.77;2.07;;;;;;;;;;5011669;28;20223;-86
2023/08/13 01:27:06;;;;;;;3.70;1.53;;;;;;;;;;5011960;28;20213;-86
2023/08/13 01:29:39;;;;;;;7.60;2.10;;;;;;;;;;5011339;28;20191;-86
2023/08/13 01:32:08;;;;;;;13.07;2.53;;;;;;;;;;5012015;28;20208;-86
2023/08/13 01:34:37;;;;;;;4.13;1.90;;;;;;;;;;5011651;28;20195;-86
2023/08/13 01:37:06;;;;;;;1.33;1.13;;;;;;;;;;5011422;28;20203;-86
2023/08/13 01:39:36;;;;;;;5.60;2.43;;;;;;;;;;5011627;28;20377;-86
2023/08/13 01:42:09;;;;;;;3.13;1.83;;;;;;;;;;5011802;28;20205;-85
2023/08/13 01:44:38;;;;;;;3.60;1.33;;;;;;;;;;5011192;28;20223;-87
2023/08/13 01:47:07;;;;;;;2.67;1.43;;;;;;;;;;5012221;28;20206;-90
2023/08/13 01:49:36;;;;;;;2.27;1.43;;;;;;;;;;5012026;28;20204;-91
2023/08/13 01:52:04;;;;;;;5.50;2.53;;;;;;;;;;5011956;28;20266;-91
2023/08/13 01:54:33;;;;;;;1.80;1.17;;;;;;;;;;5011923;28;20211;-91
2023/08/13 01:57:03;;;;;;;7.50;1.13;;;;;;;;;;5011746;28;20266;-91
2023/08/13 01:59:32;;;;;;;4.70;1.67;;;;;;;;;;5012025;28;20204;-90
2023/08/13 02:02:00;;;;;;;2.17;1.97;;;;;;;;;;5011655;28;20214;-90
2023/08/13 02:04:29;;;;;;;19.10;1.97;;;;;;;;;;5011650;28;20253;-91
2023/08/13 02:06:57;;;;;;;4.63;1.23;;;;;;;;;;5011848;28;20255;-90
2023/08/13 02:09:26;;;;;;;23.87;3.23;;;;;;;;;;5011934;28;20574;-90
2023/08/13 02:11:54;;;;;;;11.37;1.43;;;;;;;;;;5011640;28;20205;-91
2023/08/13 02:14:24;;;;;;;3.00;1.50;;;;;;;;;;5011516;28;20195;-90
2023/08/13 02:16:54;;;;;;;8.50;2.73;;;;;;;;;;5012089;28;20202;-90
2023/08/13 02:19:22;;;;;;;5.87;2.60;;;;;;;;;;5012604;28;20212;-89
2023/08/13 02:21:51;;;;;;;4.53;1.70;;;;;;;;;;5015768;28;20199;-91
2023/08/13 02:24:20;;;;;;;1.97;1.57;;;;;;;;;;5015232;28;20231;-91
2023/08/13 02:26:49;;;;;;;9.00;2.07;;;;;;;;;;5015778;28;20236;-91
2023/08/13 02:29:17;;;;;;;4.97;2.43;;;;;;;;;;5015308;28;20272;-90
2023/08/13 02:31:47;;;;;;;3.73;1.77;;;;;;;;;;5015598;28;20203;-91
2023/08/13 02:34:16;;;;;;;2.33;1.43;;;;;;;;;;5015428;28;20203;-91
2023/08/13 02:36:44;;;;;;;2.13;1.20;;;;;;;;;;5014943;28;20199;-90
2023/08/13 02:39:13;;;;;;;2.63;1.80;;;;;;;;;;5015313;28;20210;-90
2023/08/13 02:41:41;;;;;;;6.37;2.03;;;;;;;;;;5015309;28;20221;-90
2023/08/13 02:44:10;;;;;;;2.07;1.17;;;;;;;;;;5014924;28;20200;-90
2023/08/13 02:46:40;;;;;;;5.60;1.57;;;;;;;;;;5014611;28;20283;-90
2023/08/13 02:49:10;;;;;;;10.67;3.37;;;;;;;;;;5014626;28;20205;-90
2023/08/13 02:51:38;;;;;;;10.07;4.40;;;;;;;;;;5015062;28;20232;-90
2023/08/13 02:54:07;;;;;;;3.53;1.50;;;;;;;;;;5014786;28;20211;-91
2023/08/13 02:56:35;;;;;;;6.13;2.97;;;;;;;;;;5014362;28;20232;-89
2023/08/13 02:59:04;;;;;;;4.57;1.53;;;;;;;;;;5014646;28;20292;-90
2023/08/13 03:01:32;;;;;;;1.40;1.13;;;;;;;;;;5014428;28;20210;-90
2023/08/13 03:04:03;;;;;;;0.40;0.40;;;;;;;;;;5014276;28;20207;-90
2023/08/13 03:06:33;;;;;;;4.60;2.33;;;;;;;;;;5014360;28;20220;-91
2023/08/13 03:09:01;;;;;;;5.20;1.37;;;;;;;;;;5014651;28;20204;-90
2023/08/13 03:11:30;;;;;;;4.10;1.33;;;;;;;;;;5014860;28;20512;-90
2023/08/13 03:13:58;;;;;;;4.47;1.73;;;;;;;;;;5014219;28;20210;-91
2023/08/13 03:16:27;;;;;;;4.80;1.30;;;;;;;;;;5014324;28;20191;-91
2023/08/13 03:18:56;;;;;;;6.37;1.70;;;;;;;;;;5014539;28;20204;-90
2023/08/13 03:21:24;;;;;;;8.20;1.80;;;;;;;;;;5013836;28;20233;-90
2023/08/13 03:23:54;;;;;;;2.60;1.37;;;;;;;;;;5014357;28;20203;-90
2023/08/13 03:26:23;;;;;;;3.40;2.80;;;;;;;;;;5014384;28;20216;-90
2023/08/13 03:28:51;;;;;;;2.03;1.27;;;;;;;;;;5014346;28;20201;-90
2023/08/13 03:31:19;;;;;;;6.33;1.63;;;;;;;;;;5012959;28;20210;-90
2023/08/13 03:33:48;;;;;;;5.33;2.03;;;;;;;;;;5014013;28;20309;-90
2023/08/13 03:36:16;;;;;;;7.90;2.07;;;;;;;;;;5013858;28;20227;-90
2023/08/13 03:38:45;;;;;;;3.50;1.73;;;;;;;;;;5013111;28;20208;-91
2023/08/13 03:41:15;;;;;;;1.70;1.47;;;;;;;;;;5013872;28;20212;-90
2023/08/13 03:43:43;;;;;;;5.83;0.83;;;;;;;;;;5013879;28;20203;-90
2023/08/13 03:46:12;;;;;;;10.50;2.37;;;;;;;;;;5013092;28;20220;-90
2023/08/13 03:48:40;;;;;;;2.10;0.97;;;;;;;;;;5013430;28;20249;-91
2023/08/13 03:51:09;;;;;;;7.37;3.03;;;;;;;;;;5013698;28;20220;-91
2023/08/13 03:53:38;;;;;;;8.47;2.20;;;;;;;;;;5013737;28;20222;-91
2023/08/13 03:56:07;;;;;;;5.20;1.23;;;;;;;;;;5013188;28;20291;-90
2023/08/13 03:58:38;;;;;;;6.87;2.37;;;;;;;;;;5013211;28;20255;-89
2023/08/13 04:01:07;;;;;;;7.27;2.53;;;;;;;;;;5013770;28;20212;-90
2023/08/13 04:03:36;;;;;;;2.83;2.20;;;;;;;;;;5013591;28;20373;-91
2023/08/13 04:06:05;;;;;;;8.93;2.80;;;;;;;;;;5012808;28;20317;-91
2023/08/13 04:08:35;;;;;;;7.37;2.90;;;;;;;;;;5013130;28;20214;-91
2023/08/13 04:11:03;;;;;;;9.47;2.77;;;;;;;;;;5013106;28;20198;-90
2023/08/13 04:13:32;;;;;;;4.20;1.40;;;;;;;;;;5013378;28;20242;-90
2023/08/13 04:16:02;;;;;;;8.03;1.53;;;;;;;;;;5012575;28;20254;-90
2023/08/13 04:18:30;;;;;;;5.73;1.63;;;;;;;;;;5012965;28;20205;-86
2023/08/13 04:20:59;;;;;;;8.07;3.20;;;;;;;;;;5012958;28;20220;-86
2023/08/13 04:23:27;;;;;;;8.47;2.50;;;;;;;;;;5012259;28;20209;-86
2023/08/13 04:25:56;;;;;;;4.67;1.23;;;;;;;;;;5012666;28;20220;-86
2023/08/13 04:28:24;;;;;;;5.73;1.80;;;;;;;;;;5012827;28;20303;-86
2023/08/13 04:30:53;;;;;;;3.10;0.83;;;;;;;;;;5012277;28;20210;-86
2023/08/13 04:33:23;;;;;;;0.40;0.40;;;;;;;;;;5012587;28;20214;-87
2023/08/13 04:35:53;;;;;;;16.33;3.23;;;;;;;;;;5012722;28;20200;-86
2023/08/13 04:38:22;;;;;;;6.27;2.63;;;;;;;;;;5013215;28;20289;-86
2023/08/13 04:40:51;;;;;;;5.30;1.67;;;;;;;;;;5011592;28;20206;-86
2023/08/13 04:43:19;;;;;;;7.87;1.60;;;;;;;;;;5012555;28;20208;-86
2023/08/13 04:45:48;;;;;;;0.40;0.40;;;;;;;;;;5012263;28;20235;-86
2023/08/13 04:48:18;;;;;;;4.60;2.30;;;;;;;;;;5012091;28;20244;-87
2023/08/13 04:50:48;;;;;;;1.10;1.00;;;;;;;;;;5011902;28;20216;-86
2023/08/13 04:53:16;;;;;;;3.37;0.77;;;;;;;;;;5012451;28;20220;-86
2023/08/13 04:55:45;;;;;;;6.70;1.43;;;;;;;;;;5012362;28;20220;-86
2023/08/13 04:58:13;;;;;;;3.13;1.27;;;;;;;;;;5012011;28;20235;-86
2023/08/13 05:00:42;;;;;;;7.70;2.73;;;;;;;;;;5011679;28;20284;-87
2023/08/13 05:03:10;;;;;;;5.93;1.73;;;;;;;;;;5012063;28;20203;-86
2023/08/13 05:05:39;;;;;;;1.23;0.83;;;;;;;;;;5012035;28;20259;-86
2023/08/13 05:08:09;;;;;;;0.77;0.77;;;;;;;;;;5011675;28;20211;-86
2023/08/13 05:10:37;;;;;;;3.80;1.90;;;;;;;;;;5012285;28;20199;-87
2023/08/13 05:13:06;;;;;;;4.03;1.70;;;;;;;;;;5012443;28;20202;-90
2023/08/13 05:15:34;;;;;;;5.67;1.83;;;;;;;;;;5012425;28;20251;-90
2023/08/13 05:18:03;;;;;;;9.70;2.30;;;;;;;;;;5012333;28;20210;-90
2023/08/13 05:20:31;;;;;;;10.07;2.03;;;;;;;;;;5012443;28;20202;-91
2023/08/13 05:23:00;;;;;;;2.87;1.10;;;;;;;;;;5012257;28;20207;-90
2023/08/13 05:25:30;;;;;;;3.53;1.43;;;;;;;;;;5011947;28;20203;-91
2023/08/13 05:27:58;;;;;;;0.57;0.57;;;;;;;;;;5012517;28;20207;-90
2023/08/13 05:30:27;;;;;;;2.87;1.37;;;;;;;;;;5012496;28;20208;-91
2023/08/13 05:32:55;;;;;;;6.10;3.10;;;;;;;;;;5011776;28;20245;-90
2023/08/13 05:35:24;;;;;;;5.37;1.30;;;;;;;;;;5012037;28;20286;-91
2023/08/13 05:37:52;;;;;;;1.53;1.00;;;;;;;;;;5012338;28;20291;-90
2023/08/13 05:40:21;;;;;;;6.90;2.30;;;;;;;;;;5012062;28;20221;-91
2023/08/13 05:42:51;;;;;;;0.43;0.43;;;;;;;;;;5011624;28;20201;-86
2023/08/13 05:45:19;;;;;;;3.07;2.30;;;;;;;;;;5011766;28;20217;-86
2023/08/13 05:47:48;;;;;;;4.63;2.17;;;;;;;;;;5011219;28;20235;-87
2023/08/13 05:50:16;;;;;;;3.57;0.73;;;;;;;;;;5011346;28;20212;-86
2023/08/13 05:52:45;;;;;;;7.73;2.47;;;;;;;;;;5011287;28;20223;-86
2023/08/13 05:55:13;;;;;;;3.97;2.30;;;;;;;;;;5014737;28;20203;-86
2023/08/13 05:57:42;;;;;;;2.63;1.50;;;;;;;;;;5015472;28;20236;-86
2023/08/13 06:00:13;;;;;;;4.43;1.23;;;;;;;;;;5015357;28;20364;-86
2023/08/13 06:02:41;;;;;;;6.40;2.47;;;;;;;;;;5015433;28;20200;-86
2023/08/13 06:05:11;;;;;;;4.90;1.57;;;;;;;;;;5015515;28;20230;-86
2023/08/13 06:07:39;;;;;;;7.10;1.17;;;;;;;;;;5015253;28;20230;-86
2023/08/13 06:10:08;;;;;;;4.97;1.10;;;;;;;;;;5015055;28;20201;-86
2023/08/13 06:12:36;;;;;;;3.80;0.97;;;;;;;;;;5015485;28;20205;-86
2023/08/13 06:15:05;;;;;;;2.30;1.37;;;;;;;;;;5015210;28;20213;-86
2023/08/13 06:17:35;;;;;;;3.67;1.40;;;;;;;;;;5014652;28;20208;-87
2023/08/13 06:20:04;;;;;;;9.43;2.40;;;;;;;;;;5014916;28;20218;-86
2023/08/13 06:22:33;;;;;;;3.87;1.33;;;;;;;;;;5015098;28;20239;-86
2023/08/13 06:25:01;;;;;;;2.60;0.93;;;;;;;;;;5014811;28;20298;-86
2023/08/13 06:27:30;;;;;;;2.97;1.37;;;;;;;;;;5014399;28;20246;-86
2023/08/13 06:29:58;;;;;;;6.50;2.43;;;;;;;;;;5014998;28;20209;-86
2023/08/13 06:32:39;;;;;;;7.37;1.50;;;;;;;;;;5015004;28;20232;-87
2023/08/13 06:35:08;;;;;;;7.43;1.30;;;;;;;;;;5015594;28;20232;-89
2023/08/13 06:37:37;;;;;;;3.00;1.23;;;;;;;;;;5015641;28;20259;-91
2023/08/13 06:40:25;;;;;;;9.40;2.27;;;;;;;;;;5015280;28;20476;-91
2023/08/13 06:42:54;;;;;;;1.63;0.93;;;;;;;;;;5015197;28;20212;-91
2023/08/13 06:45:26;;;;;;;3.37;1.40;;;;;;;;;;5014713;28;20275;-90
2023/08/13 06:47:57;;;;;;;1.30;1.17;;;;;;;;;;5014761;28;20220;-90
2023/08/13 06:50:25;;;;;;;5.50;1.70;;;;;;;;;;5014740;28;20209;-91
2023/08/13 06:52:53;;;;;;;7.97;2.77;;;;;;;;;;5014681;28;20207;-89
2023/08/13 06:55:22;;;;;;;8.13;2.40;;;;;;;;;;5014826;28;20201;-86
2023/08/13 06:57:51;;;;;;;1.77;1.67;;;;;;;;;;5014622;28;20245;-86
2023/08/13 07:00:20;;;;;;;6.00;1.43;;;;;;;;;;5014410;28;20203;-86
2023/08/13 07:02:53;;;;;;;7.53;2.40;;;;;;;;;;5013898;28;20205;-86
2023/08/13 07:05:23;;;;;;;8.07;1.53;;;;;;;;;;5014200;28;20304;-87
2023/08/13 07:07:51;;;;;;;4.43;1.53;;;;;;;;;;5013810;28;20212;-87
2023/08/13 07:10:20;;;;;;;3.80;1.17;;;;;;;;;;5013592;28;20216;-87
2023/08/13 07:12:48;;;;;;;7.23;1.73;;;;;;;;;;5014484;28;20200;-86
2023/08/13 07:15:17;;;;;;;3.50;1.33;;;;;;;;;;5014122;28;20215;-86
2023/08/13 07:17:45;;;;;;;1.13;0.90;;;;;;;;;;5014093;28;20311;-87
2023/08/13 07:20:14;;;;;;;8.50;3.00;;;;;;;;;;5013867;28;20195;-91
2023/08/13 07:22:45;;;;;;;2.73;1.17;;;;;;;;;;5014598;28;20205;-90
2023/08/13 07:25:14;;;;;;;10.37;1.30;;;;;;;;;;5014298;28;20229;-90
2023/08/13 07:27:44;;;;;;;4.90;2.60;;;;;;;;;;5013972;28;20210;-90
2023/08/13 07:30:13;;;;;;;1.63;1.07;;;;;;;;;;5013739;28;20206;-90
2023/08/13 07:32:41;;;;;;;5.43;2.40;;;;;;;;;;5014188;28;20301;-91
2023/08/13 07:35:12;;;;;;;5.73;2.23;;;;;;;;;;5014587;28;20206;-91
2023/08/13 07:37:41;;;;;;;5.60;1.80;;;;;;;;;;5013630;28;20271;-91
2023/08/13 07:40:12;;;;;;;2.67;1.30;;;;;;;;;;5014240;28;20196;-91
2023/08/13 07:42:41;;;;;;;4.27;1.33;;;;;;;;;;5014200;28;20205;-90
2023/08/13 07:45:11;;;;;;;2.27;2.07;;;;;;;;;;5013890;28;20203;-90
2023/08/13 07:47:40;;;;;;;7.87;2.73;;;;;;;;;;5013786;28;20234;-90
2023/08/13 07:50:09;;;;;;;3.50;1.97;;;;;;;;;;5013180;28;20307;-86
2023/08/13 07:52:37;;;;;;;2.90;1.17;;;;;;;;;;5013603;28;20227;-86
2023/08/13 07:55:06;;;;;;;5.73;2.07;;;;;;;;;;5013247;28;20202;-87
2023/08/13 07:57:36;;;;;;;2.17;1.40;;;;;;;;;;5013153;28;20231;-86
2023/08/13 08:00:08;;;;;;;6.47;2.57;;;;;;;;;;5013432;28;20252;-87
2023/08/13 08:02:37;;;;;;;3.40;1.60;;;;;;;;;;5013012;28;20225;-87
2023/08/13 08:05:07;;;;;;;3.33;2.50;;;;;;;;;;5012808;28;20200;-86
2023/08/13 08:07:35;;;;;;;6.07;2.23;;;;;;;;;;5012744;28;20268;-87
2023/08/13 08:10:05;;;;;;;7.07;2.10;;;;;;;;;;5012757;28;20231;-86
2023/08/13 08:12:33;;;;;;;8.63;3.07;;;;;;;;;;5012656;28;20225;-86
2023/08/13 08:15:03;;;;;;;10.70;2.70;;;;;;;;;;5013100;28;20213;-86
2023/08/13 08:17:32;;;;;;;1.00;0.87;;;;;;;;;;5012420;28;20190;-87
2023/08/13 08:20:02;;;;;;;3.47;1.43;;;;;;;;;;5012954;28;20202;-86
2023/08/13 08:22:31;;;;;;;2.53;1.00;;;;;;;;;;5012562;28;20211;-86
2023/08/13 08:25:00;;;;;;;1.03;1.00;;;;;;;;;;5012900;28;20203;-86
2023/08/13 08:27:28;;;;;;;4.17;1.50;;;;;;;;;;5013039;28;20247;-86
2023/08/13 08:29:57;;;;;;;3.90;2.03;;;;;;;;;;5011769;28;20207;-86
2023/08/13 08:32:27;;;;;;;0.73;0.73;;;;;;;;;;5012598;28;20270;-87
2023/08/13 08:34:55;;;;;;;10.57;4.17;;;;;;;;;;5012451;28;20292;-86
2023/08/13 08:37:24;;;;;;;2.83;2.03;;;;;;;;;;5013594;28;20216;-91
2023/08/13 08:39:52;;;;;;;6.20;2.10;;;;;;;;;;5012576;28;20205;-91
2023/08/13 08:42:21;;;;;;;4.20;1.30;;;;;;;;;;5012988;28;20258;-91
2023/08/13 08:44:50;;;;;;;4.03;2.30;;;;;;;;;;5013065;28;20208;-90
2023/08/13 08:47:19;;;;;;;5.10;1.43;;;;;;;;;;5012798;28;20296;-91
2023/08/13 08:49:50;;;;;;;2.37;1.43;;;;;;;;;;5012422;28;20200;-86
2023/08/13 08:52:19;;;;;;;3.43;1.53;;;;;;;;;;5012109;28;20224;-86
2023/08/13 08:54:47;;;;;;;2.40;1.50;;;;;;;;;;5012671;28;20459;-86
2023/08/13 08:57:16;;;;;;;5.30;1.43;;;;;;;;;;5011722;28;20322;-87
2023/08/13 08:59:45;;;;;;;2.63;1.67;;;;;;;;;;5011970;28;20234;-86
2023/08/13 09:02:14;;;;;;;6.33;2.80;;;;;;;;;;5012102;28;20208;-87
2023/08/13 09:04:43;;;;;;;5.93;2.60;;;;;;;;;;5012350;28;20207;-86
2023/08/13 09:07:12;;;;;;;6.90;1.60;;;;;;;;;;5012220;28;20298;-86
2023/08/13 09:09:43;;;;;;;4.57;1.33;;;;;;;;;;5012127;28;20227;-86
2023/08/13 09:12:12;;;;;;;9.27;3.03;;;;;;;;;;5012297;28;20206;-88
2023/08/13 09:14:41;;;;;;;3.90;2.17;;;;;;;;;;5011558;28;20291;-88
2023/08/13 09:17:12;;;;;;;2.67;1.07;;;;;;;;;;5011929;28;20210;-86
2023/08/13 09:19:41;;;;;;;2.30;2.10;;;;;;;;;;5011961;28;20273;-86
2023/08/13 09:22:10;;;;;;;5.40;1.93;;;;;;;;;;5011680;28;20212;-87
2023/08/13 09:24:41;;;;;;;4.30;1.30;;;;;;;;;;5011859;28;20227;-87
2023/08/13 09:27:10;;;;;;;3.47;2.50;;;;;;;;;;5011853;28;20204;-86
2023/08/13 09:29:40;;;;;;;4.20;1.83;;;;;;;;;;5013736;28;20225;-86
2023/08/13 09:32:08;;;;;;;7.17;3.03;;;;;;;;;;5015255;28;20207;-87
2023/08/13 09:34:37;;;;;;;4.33;2.23;;;;;;;;;;5015903;28;20207;-86
2023/08/13 09:37:05;;;;;;;5.90;3.03;;;;;;;;;;5016234;28;20195;-86
2023/08/13 09:39:34;;;;;;;5.43;3.57;;;;;;;;;;5015719;28;20200;-86
2023/08/13 09:42:06;;;;;;;7.43;1.80;;;;;;;;;;5015253;28;20195;-86
2023/08/13 09:44:34;;;;;;;2.57;1.67;;;;;;;;;;5015868;28;20296;-86
2023/08/13 09:47:04;;;;;;;1.20;0.77;;;;;;;;;;5015571;28;20260;-86
2023/08/13 09:49:33;;;;;;;5.30;1.97;;;;;;;;;;5015102;28;20251;-86
2023/08/13 09:52:02;;;;;;;4.97;0.90;;;;;;;;;;5015489;28;20220;-86
2023/08/13 09:54:38;;;;;;;0.60;0.60;;;;;;;;;;5015827;28;20202;-86
2023/08/13 09:57:10;;;;;;;0.63;0.63;;;;;;;;;;5015284;28;20252;-88
2023/08/13 09:59:39;;;;;;;3.40;2.20;;;;;;;;;;5015181;28;20234;-86
2023/08/13 10:02:08;;;;;;;3.57;1.50;;;;;;;;;;5015512;28;20237;-86
2023/08/13 10:04:37;;;;;;;3.80;1.40;;;;;;;;;;5015624;28;20199;-86
2023/08/13 10:07:05;;;;;;;1.20;1.10;;;;;;;;;;5014978;28;20203;-87
2023/08/13 10:09:34;;;;;;;1.90;1.13;;;;;;;;;;5015060;28;20231;-86
2023/08/13 10:12:03;;;;;;;0.73;0.73;;;;;;;;;;5015016;28;20202;-86
2023/08/13 10:14:33;;;;;;;2.07;0.87;;;;;;;;;;5015132;28;20222;-87
2023/08/13 10:17:04;;;;;;;2.77;1.90;;;;;;;;;;5015118;28;20213;-86
2023/08/13 10:19:33;;;;;;;3.63;0.93;;;;;;;;;;5014974;28;20289;-86
2023/08/13 10:22:01;;;;;;;9.63;3.10;;;;;;;;;;5014972;28;20210;-87
2023/08/13 10:24:30;;;;;;;1.67;1.10;;;;;;;;;;5015188;28;20200;-87
2023/08/13 10:27:00;;;;;;;6.37;1.97;;;;;;;;;;5015107;28;20205;-87
2023/08/13 10:29:37;;;;;;;2.57;0.90;;;;;;;;;;5014887;28;20279;-87
2023/08/13 10:32:13;;;;;;;2.73;1.30;;;;;;;;;;5014729;28;20294;-87
2023/08/13 10:34:46;;;;;;;2.10;1.00;;;;;;;;;;5015099;28;20206;-86
2023/08/13 10:37:17;;;;;;;2.60;1.20;;;;;;;;;;5014949;28;20214;-87
2023/08/13 10:39:46;;;;;;;3.50;2.13;;;;;;;;;;5013931;28;20195;-86
2023/08/13 10:42:34;;;;;;;5.00;1.93;;;;;;;;;;5014821;28;20223;-86
2023/08/13 10:45:05;;;;;;;2.63;1.70;;;;;;;;;;5014719;28;20208;-87
2023/08/13 10:47:38;;;;;;;2.33;1.80;;;;;;;;;;5014574;28;20203;-87
2023/08/13 10:50:08;;;;;;;2.03;0.90;;;;;;;;;;5014372;28;20230;-87
2023/08/13 10:52:37;;;;;;;6.77;1.60;;;;;;;;;;5014239;28;20219;-87
2023/08/13 10:55:06;;;;;;;2.60;0.90;;;;;;;;;;5014605;28;20197;-87
2023/08/13 10:57:35;;;;;;;6.93;1.57;;;;;;;;;;5014187;28;20250;-87
2023/08/13 11:00:05;;;;;;;1.03;0.77;;;;;;;;;;5013939;28;20191;-86
2023/08/13 11:02:33;;;;;;;3.20;0.93;;;;;;;;;;5014095;28;20212;-86
2023/08/13 11:05:03;;;;;;;0.90;0.90;;;;;;;;;;5014473;28;20211;-87
2023/08/13 11:07:32;;;;;;;2.13;1.03;;;;;;;;;;5014113;28;20207;-87
2023/08/13 11:10:01;;;;;;;1.50;0.97;;;;;;;;;;5013328;28;20271;-87
2023/08/13 11:12:29;;;;;;;1.33;0.93;;;;;;;;;;5014111;28;20215;-87
2023/08/13 11:15:00;;;;;;;3.20;1.70;;;;;;;;;;5014259;28;20205;-86
2023/08/13 11:17:30;;;;;;;0.83;0.70;;;;;;;;;;5013445;28;20188;-87
2023/08/13 11:19:59;;;;;;;4.17;1.20;;;;;;;;;;5013990;28;20246;-87
2023/08/13 11:22:27;;;;;;;3.33;1.50;;;;;;;;;;5014106;28;20211;-87
2023/08/13 11:24:56;;;;;;;2.37;1.30;;;;;;;;;;5013921;28;20210;-87
2023/08/13 11:27:29;;;;;;;4.53;1.50;;;;;;;;;;5013449;28;20306;-86
2023/08/13 11:29:57;;;;;;;5.33;1.20;;;;;;;;;;5013709;28;20241;-86
2023/08/13 11:32:26;;;;;;;5.93;0.83;;;;;;;;;;5013821;28;20203;-86
2023/08/13 11:34:56;;;;;;;2.87;1.10;;;;;;;;;;5013951;28;20468;-86
2023/08/13 11:37:27;;;;;;;5.23;1.40;;;;;;;;;;5013403;28;20283;-87
2023/08/13 11:39:56;;;;;;;1.87;1.40;;;;;;;;;;5013633;28;20198;-87
2023/08/13 11:42:24;;;;;;;3.83;1.60;;;;;;;;;;5013785;28;20204;-87
2023/08/13 11:44:53;;;;;;;2.20;1.33;;;;;;;;;;5013790;28;20226;-91
2023/08/13 11:47:25;;;;;;;2.03;1.37;;;;;;;;;;5014893;28;20196;-91
2023/08/13 11:49:54;;;;;;;3.57;1.70;;;;;;;;;;5014306;28;20215;-91
2023/08/13 11:52:24;;;;;;;4.70;2.33;;;;;;;;;;5013887;28;20227;-91
2023/08/13 11:54:53;;;;;;;1.33;0.77;;;;;;;;;;5014150;28;20257;-91
2023/08/13 11:57:21;;;;;;;0.60;0.60;;;;;;;;;;5014186;28;20235;-91
2023/08/13 11:59:50;;;;;;;1.70;0.70;;;;;;;;;;5013769;28;20194;-91
2023/08/13 12:02:19;;;;;;;0.70;0.70;;;;;;;;;;5013983;28;20212;-90
2023/08/13 12:04:48;;;;;;;0.70;0.67;;;;;;;;;;5013917;28;20269;-91
2023/08/13 12:07:17;;;;;;;0.90;0.90;;;;;;;;;;5013614;28;20270;-91
2023/08/13 12:09:47;;;;;;;0.60;0.60;;;;;;;;;;5013695;28;20210;-91
2023/08/13 12:12:16;;;;;;;1.00;0.90;;;;;;;;;;5012741;28;20260;-91
2023/08/13 12:14:45;;;;;;;0.40;0.40;;;;;;;;;;5013547;28;20206;-91
2023/08/13 12:17:14;;;;;;;6.87;0.90;;;;;;;;;;5014079;28;20210;-90
2023/08/13 12:19:44;;;;;;;0.93;0.50;;;;;;;;;;5012859;28;20207;-91
2023/08/13 12:22:13;;;;;;;4.03;0.60;;;;;;;;;;5013487;28;20196;-91
2023/08/13 12:24:42;;;;;;;3.40;1.57;;;;;;;;;;5013783;28;20207;-91
2023/08/13 12:27:13;;;;;;;0.87;0.50;;;;;;;;;;5013345;28;20534;-91
2023/08/13 12:29:41;;;;;;;2.73;1.17;;;;;;;;;;5012668;28;20212;-91
2023/08/13 12:32:10;;;;;;;4.07;0.57;;;;;;;;;;5013186;28;20229;-91
2023/08/13 12:34:38;;;;;;;8.90;1.13;;;;;;;;;;5013243;28;20208;-92
2023/08/13 12:37:07;;;;;;;3.10;1.17;;;;;;;;;;5012662;28;20206;-91
2023/08/13 12:39:36;;;;;;;2.10;0.97;;;;;;;;;;5012931;28;20207;-91
2023/08/13 12:42:04;;;;;;;10.40;6.03;;;;;;;;;;5013046;28;20241;-91
2023/08/13 12:44:34;;;;;;;4.40;1.17;;;;;;;;;;5012616;28;20207;-90
2023/08/13 12:47:03;;;;;;;1.00;0.90;;;;;;;;;;5012678;28;20212;-91
2023/08/13 12:49:31;;;;;;;1.13;0.50;;;;;;;;;;5012391;28;20211;-86
2023/08/13 12:52:00;;;;;;;1.53;0.83;;;;;;;;;;5012504;28;20229;-86
2023/08/13 12:54:29;;;;;;;0.80;0.50;;;;;;;;;;5012170;28;20198;-87
2023/08/13 12:56:57;;;;;;;1.17;0.87;;;;;;;;;;5011781;28;20212;-87
2023/08/13 12:59:26;;;;;;;5.10;1.70;;;;;;;;;;5012030;28;20210;-87
2023/08/13 13:01:55;;;;;;;4.60;1.23;;;;;;;;;;5012491;28;20200;-86
2023/08/13 13:04:24;;;;;;;3.03;1.20;;;;;;;;;;5011362;28;20287;-87
2023/08/13 13:06:53;;;;;;;1.00;0.60;;;;;;;;;;5012379;28;20291;-86
2023/08/13 13:09:21;;;;;;;2.50;1.07;;;;;;;;;;5011844;28;20215;-87
2023/08/13 13:11:50;;;;;;;0.90;0.90;;;;;;;;;;5012037;28;20238;-86
2023/08/13 13:14:18;;;;;;;2.77;0.80;;;;;;;;;;5011971;28;20210;-86
2023/08/13 13:16:48;;;;;;;0.70;0.70;;;;;;;;;;5011976;28;20205;-86
2023/08/13 13:19:19;;;;;;;0.67;0.60;;;;;;;;;;5011803;28;20206;-87
2023/08/13 13:21:48;;;;;;;1.97;0.77;;;;;;;;;;5011761;28;20202;-86
2023/08/13 13:24:17;;;;;;;2.47;0.90;;;;;;;;;;5012126;28;20210;-86
2023/08/13 13:26:45;;;;;;;0.73;0.60;;;;;;;;;;5011987;28;20555;-86
2023/08/13 13:29:14;;;;;;;3.10;1.30;;;;;;;;;;5011617;28;20211;-87
2023/08/13 13:31:44;;;;;;;1.00;0.57;;;;;;;;;;5011732;28;20212;-86
2023/08/13 13:34:12;;;;;;;1.30;0.70;;;;;;;;;;5012351;28;20200;-86
2023/08/13 13:36:44;;;;;;;2.57;1.13;;;;;;;;;;5011999;28;20215;-86
2023/08/13 13:39:13;;;;;;;2.70;1.60;;;;;;;;;;5011428;28;20222;-87
2023/08/13 13:41:41;;;;;;;1.03;0.80;;;;;;;;;;5012137;28;20233;-87
2023/08/13 13:44:10;;;;;;;2.23;1.03;;;;;;;;;;5011742;28;20200;-87
2023/08/13 13:46:38;;;;;;;1.70;0.80;;;;;;;;;;5012019;28;20202;-87
2023/08/13 13:49:07;;;;;;;0.93;0.70;;;;;;;;;;5011571;28;20228;-87
2023/08/13 13:51:36;;;;;;;1.30;0.60;;;;;;;;;;5011650;28;20238;-86
2023/08/13 13:54:06;;;;;;;0.60;0.60;;;;;;;;;;5011699;28;20218;-86
2023/08/13 13:56:35;;;;;;;2.00;1.27;;;;;;;;;;5011510;28;20209;-86
2023/08/13 13:59:04;;;;;;;2.17;0.87;;;;;;;;;;5011428;28;20240;-86
2023/08/13 14:01:33;;;;;;;0.93;0.60;;;;;;;;;;5011214;28;20255;-86
2023/08/13 14:04:02;;;;;;;1.00;0.87;;;;;;;;;;5011733;28;20227;-87
2023/08/13 14:06:31;;;;;;;0.60;0.60;;;;;;;;;;5011427;28;20211;-87
2023/08/13 14:08:59;;;;;;;1.07;0.90;;;;;;;;;;5011377;28;20257;-87
2023/08/13 14:11:29;;;;;;;0.70;0.70;;;;;;;;;;5011314;28;20230;-87
2023/08/13 14:13:58;;;;;;;0.50;0.50;;;;;;;;;;5011503;28;20208;-86
2023/08/13 14:16:26;;;;;;;1.43;0.57;;;;;;;;;;5014298;28;20206;-87
2023/08/13 14:18:55;;;;;;;1.13;0.47;;;;;;;;;;5015313;28;20234;-86
2023/08/13 14:21:24;;;;;;;1.60;1.30;;;;;;;;;;5015421;28;20194;-87
2023/08/13 14:23:52;;;;;;;1.37;1.27;;;;;;;;;;5014449;28;20207;-86
2023/08/13 14:26:20;;;;;;;1.43;0.80;;;;;;;;;;5015366;28;20196;-87
2023/08/13 14:28:50;;;;;;;2.17;1.00;;;;;;;;;;5015324;28;20230;-87
2023/08/13 14:31:19;;;;;;;0.73;0.50;;;;;;;;;;5014834;28;20222;-86
2023/08/13 14:33:48;;;;;;;0.60;0.60;;;;;;;;;;5014969;28;20211;-87
2023/08/13 14:36:16;;;;;;;0.60;0.60;;;;;;;;;;5014978;28;20214;-87
2023/08/13 14:38:45;;;;;;;1.20;0.40;;;;;;;;;;5014869;28;20210;-87
2023/08/13 14:41:13;;;;;;;0.43;0.43;;;;;;;;;;5014107;28;20202;-87
2023/08/13 14:43:42;;;;;;;0.70;0.70;;;;;;;;;;5014948;28;20206;-87
2023/08/13 14:46:12;;;;;;;0.50;0.50;;;;;;;;;;5015216;28;20214;-87
2023/08/13 14:48:41;;;;;;;5.80;0.70;;;;;;;;;;5014536;28;20251;-87
2023/08/13 14:51:09;;;;;;;0.50;0.50;;;;;;;;;;5013927;28;20217;-86
2023/08/13 14:53:38;;;;;;;1.13;0.50;;;;;;;;;;5014907;28;20209;-86
2023/08/13 14:56:06;;;;;;;2.47;0.70;;;;;;;;;;5014840;28;20202;-86